createdAt,value
2022-10-20T00:00:23.476Z,1.77
2022-10-20T00:02:53.209Z,1.33
2022-10-20T00:05:23.739Z,1.63
2022-10-20T00:07:53.419Z,1.40
2022-10-20T00:10:23.263Z,1.42
2022-10-20T00:12:52.881Z,1.75
2022-10-20T00:15:24.869Z,1.65
2022-10-20T00:17:54.763Z,1.60
2022-10-20T00:20:27.107Z,1.70
2022-10-20T00:22:57.826Z,1.70
2022-10-20T00:25:29.040Z,1.90
2022-10-20T00:27:59.760Z,1.90
2022-10-20T00:30:32.858Z,1.73
2022-10-20T00:33:03.283Z,1.88
2022-10-20T00:35:34.140Z,1.60
2022-10-20T00:38:04.402Z,1.90
2022-10-20T00:40:34.123Z,1.92
2022-10-20T00:43:04.550Z,1.98
2022-10-20T00:45:36.829Z,1.88
2022-10-20T00:48:16.890Z,1.55
2022-10-20T00:50:53.544Z,1.70
2022-10-20T00:53:26.862Z,1.73
2022-10-20T00:56:00.398Z,1.95
2022-10-20T00:58:31.926Z,1.85
2022-10-20T01:01:03.836Z,1.95
2022-10-20T01:03:46.208Z,2.05
2022-10-20T01:06:22.427Z,1.98
2022-10-20T01:08:55.270Z,1.75
2022-10-20T01:11:39.206Z,1.80
2022-10-20T01:14:29.285Z,1.90
2022-10-20T01:17:15.763Z,1.92
2022-10-20T01:20:29.746Z,1.70
2022-10-20T01:23:47.065Z,1.70
2022-10-20T01:26:48.324Z,1.75
2022-10-20T01:29:31.111Z,1.88
2022-10-20T01:32:15.028Z,1.80
2022-10-20T01:34:58.714Z,1.73
2022-10-20T01:37:48.777Z,2.10
2022-10-20T01:40:32.201Z,2.10
2022-10-20T01:43:07.200Z,1.63
2022-10-20T01:45:43.788Z,2.15
2022-10-20T01:48:19.174Z,1.83
2022-10-20T01:50:52.186Z,2.00
2022-10-20T01:53:23.723Z,2.22
2022-10-20T01:55:57.576Z,2.13
2022-10-20T01:59:22.096Z,2.00
2022-10-20T02:02:29.569Z,1.83
2022-10-20T02:05:20.963Z,1.92
2022-10-20T02:07:51.680Z,2.03
2022-10-20T02:10:26.847Z,2.00
2022-10-20T02:13:03.985Z,2.30
2022-10-20T02:15:38.702Z,2.00
2022-10-20T02:18:15.164Z,2.03
2022-10-20T02:20:49.922Z,2.10
2022-10-20T02:23:20.523Z,2.03
2022-10-20T02:26:03.150Z,1.95
2022-10-20T02:28:36.228Z,1.92
2022-10-20T02:31:07.839Z,2.00
2022-10-20T02:33:41.936Z,2.03
2022-10-20T02:36:19.598Z,1.80
2022-10-20T02:38:49.975Z,2.03
2022-10-20T02:41:20.350Z,1.55
2022-10-20T02:43:50.574Z,1.85
2022-10-20T02:46:20.310Z,1.80
2022-10-20T02:48:52.507Z,2.17
2022-10-20T02:51:22.504Z,1.95
2022-10-20T02:53:55.210Z,2.10
2022-10-20T02:56:27.616Z,2.10
2022-10-20T02:59:00.475Z,2.15
2022-10-20T03:01:30.782Z,2.03
2022-10-20T03:04:02.697Z,2.38
2022-10-20T03:06:32.947Z,2.10
2022-10-20T03:09:03.047Z,2.03
2022-10-20T03:11:34.329Z,2.33
2022-10-20T03:14:04.560Z,2.00
2022-10-20T03:16:34.299Z,2.25
2022-10-20T03:19:09.127Z,2.20
2022-10-20T03:21:41.735Z,2.33
2022-10-20T03:24:12.153Z,2.33
2022-10-20T03:26:42.235Z,2.45
2022-10-20T03:29:12.342Z,2.10
2022-10-20T03:31:42.640Z,2.08
2022-10-20T03:34:15.052Z,2.60
2022-10-20T03:36:45.404Z,2.40
2022-10-20T03:39:15.778Z,2.35
2022-10-20T03:41:45.687Z,2.40
2022-10-20T03:44:15.709Z,2.50
2022-10-20T03:46:45.363Z,2.33
2022-10-20T03:49:17.677Z,2.28
2022-10-20T03:51:47.914Z,2.50
2022-10-20T03:54:18.170Z,2.38
2022-10-20T03:56:48.079Z,2.33
2022-10-20T03:59:17.814Z,2.38
2022-10-20T04:01:49.324Z,2.38
2022-10-20T04:04:21.376Z,2.50
2022-10-20T04:06:51.674Z,2.45
2022-10-20T04:09:21.875Z,2.47
2022-10-20T04:11:52.236Z,2.42
2022-10-20T04:14:22.400Z,2.60
2022-10-20T04:16:52.786Z,2.58
2022-10-20T04:19:24.367Z,2.28
2022-10-20T04:21:54.470Z,2.80
2022-10-20T04:24:24.728Z,2.38
2022-10-20T04:26:54.382Z,2.53
2022-10-20T04:29:24.499Z,2.78
2022-10-20T04:31:54.840Z,2.50
2022-10-20T04:34:27.199Z,2.65
2022-10-20T04:36:57.499Z,2.58
2022-10-20T04:39:27.304Z,2.70
2022-10-20T04:41:57.832Z,2.70
2022-10-20T04:44:27.973Z,2.50
2022-10-20T04:46:58.575Z,2.22
2022-10-20T04:49:30.250Z,2.20
2022-10-20T04:52:01.322Z,2.35
2022-10-20T04:54:31.501Z,2.20
2022-10-20T04:57:02.144Z,2.50
2022-10-20T04:59:32.640Z,2.25
2022-10-20T05:02:02.883Z,2.10
2022-10-20T05:04:35.214Z,2.58
2022-10-20T05:07:04.967Z,2.35
2022-10-20T05:09:36.982Z,2.30
2022-10-20T05:12:07.642Z,2.50
2022-10-20T05:14:38.005Z,2.63
2022-10-20T05:17:09.344Z,2.60
2022-10-20T05:19:42.046Z,2.40
2022-10-20T05:22:11.851Z,2.78
2022-10-20T05:24:43.257Z,2.70
2022-10-20T05:27:13.523Z,2.60
2022-10-20T05:29:43.297Z,2.28
2022-10-20T05:32:14.529Z,2.70
2022-10-20T05:34:46.389Z,2.35
2022-10-20T05:37:16.038Z,2.13
2022-10-20T05:42:21.290Z,2.20
2022-10-20T05:44:51.599Z,1.92
2022-10-20T05:47:21.773Z,1.85
2022-10-20T05:49:53.574Z,2.00
2022-10-20T05:52:23.933Z,1.73
2022-10-20T05:54:54.040Z,1.80
2022-10-20T05:57:24.534Z,1.80
2022-10-20T05:59:54.902Z,1.90
2022-10-20T06:02:25.197Z,1.80
2022-10-20T06:04:56.765Z,1.58
2022-10-20T06:07:26.462Z,1.90
2022-10-20T06:09:56.402Z,1.90
2022-10-20T06:12:29.426Z,1.67
2022-10-20T06:14:59.831Z,1.63
2022-10-20T06:17:29.738Z,1.75
2022-10-20T06:20:02.201Z,2.05
2022-10-20T06:22:32.481Z,1.73
2022-10-20T06:25:02.656Z,1.83
2022-10-20T06:27:32.978Z,2.05
2022-10-20T06:30:03.303Z,2.00
2022-10-20T06:32:33.725Z,2.13
2022-10-20T06:35:06.455Z,1.73
2022-10-20T06:37:36.970Z,1.90
2022-10-20T06:40:07.710Z,2.28
2022-10-20T06:42:37.953Z,2.10
2022-10-20T06:45:12.225Z,1.90
2022-10-20T06:47:44.904Z,2.00
2022-10-20T06:50:16.509Z,1.95
2022-10-20T06:52:46.587Z,1.70
2022-10-20T06:55:16.791Z,1.67
2022-10-20T06:57:47.244Z,1.55
2022-10-20T07:00:18.316Z,1.45
2022-10-20T07:02:48.532Z,1.40
2022-10-20T07:05:22.370Z,1.50
2022-10-20T07:07:55.945Z,1.35
2022-10-20T07:10:25.972Z,1.60
2022-10-20T07:12:55.652Z,1.40
2022-10-20T07:15:25.326Z,1.40
2022-10-20T07:17:56.387Z,1.70
2022-10-20T07:20:29.382Z,1.60
2022-10-20T07:22:59.653Z,1.70
2022-10-20T07:25:29.757Z,1.83
2022-10-20T07:27:59.742Z,1.80
2022-10-20T07:30:30.099Z,1.75
2022-10-20T07:33:00.744Z,1.50
2022-10-20T07:35:33.007Z,1.52
2022-10-20T07:38:03.012Z,1.50
2022-10-20T07:40:33.926Z,1.50
2022-10-20T07:43:04.281Z,1.52
2022-10-20T07:45:34.739Z,1.48
2022-10-20T07:48:07.455Z,1.35
2022-10-20T07:50:40.707Z,1.45
2022-10-20T07:53:11.133Z,1.65
2022-10-20T07:55:41.897Z,1.40
2022-10-20T07:58:11.901Z,1.25
2022-10-20T08:00:41.692Z,1.25
2022-10-20T08:03:12.879Z,1.42
2022-10-20T08:05:44.787Z,1.33
2022-10-20T08:08:15.187Z,1.20
2022-10-20T08:10:45.699Z,1.10
2022-10-20T08:13:15.516Z,1.10
2022-10-20T08:15:48.492Z,0.85
2022-10-20T08:18:19.097Z,1.10
2022-10-20T08:20:51.464Z,1.05
2022-10-20T08:23:22.293Z,1.00
2022-10-20T08:25:58.030Z,1.10
2022-10-20T08:28:27.884Z,1.40
2022-10-20T08:30:57.951Z,1.20
2022-10-20T08:33:28.203Z,1.10
2022-10-20T08:36:05.541Z,1.13
2022-10-20T08:38:36.643Z,0.98
2022-10-20T08:41:17.181Z,1.10
2022-10-20T08:43:50.334Z,1.27
2022-10-20T08:46:25.792Z,1.00
2022-10-20T08:48:55.871Z,0.82
2022-10-20T08:51:37.674Z,1.20
2022-10-20T08:54:15.433Z,1.10
2022-10-20T08:56:46.781Z,1.10
2022-10-20T08:59:31.501Z,1.20
2022-10-20T09:02:02.618Z,0.95
2022-10-20T09:04:39.854Z,1.23
2022-10-20T09:07:27.649Z,1.05
2022-10-20T09:10:09.358Z,1.33
2022-10-20T09:12:44.188Z,1.13
2022-10-20T09:15:16.635Z,1.00
2022-10-20T09:17:53.706Z,1.00
2022-10-20T09:20:30.120Z,1.30
2022-10-20T09:23:07.839Z,1.20
2022-10-20T09:25:48.049Z,1.27
2022-10-20T09:28:27.161Z,1.30
2022-10-20T09:30:59.345Z,1.15
2022-10-20T09:33:34.175Z,1.40
2022-10-20T09:36:21.475Z,1.38
2022-10-20T09:38:55.278Z,1.40
2022-10-20T09:41:31.158Z,1.30
2022-10-20T09:44:04.529Z,1.20
2022-10-20T09:46:49.094Z,1.20
2022-10-20T09:49:31.385Z,1.00
2022-10-20T09:52:05.344Z,1.02
2022-10-20T09:54:37.782Z,1.20
2022-10-20T09:57:10.980Z,1.30
2022-10-20T09:59:48.683Z,1.33
2022-10-20T10:02:33.478Z,1.23
2022-10-20T10:05:21.666Z,1.23
2022-10-20T10:08:03.220Z,1.30
2022-10-20T10:10:35.950Z,1.25
2022-10-20T10:15:43.154Z,1.40
2022-10-20T10:18:24.008Z,1.30
2022-10-20T10:21:04.536Z,1.25
2022-10-20T10:23:41.468Z,1.27
2022-10-20T10:26:48.580Z,1.33
2022-10-20T10:29:27.763Z,1.15
2022-10-20T10:32:03.731Z,1.10
2022-10-20T10:34:53.043Z,1.38
2022-10-20T10:37:23.498Z,1.17
2022-10-20T10:39:53.570Z,1.48
2022-10-20T10:43:08.240Z,1.30
2022-10-20T10:45:53.950Z,1.65
2022-10-20T10:49:20.857Z,1.00
2022-10-20T10:52:08.548Z,0.98
2022-10-20T10:54:59.344Z,1.27
2022-10-20T10:57:39.697Z,1.20
2022-10-20T11:00:22.698Z,1.00
2022-10-20T11:03:16.740Z,1.08
2022-10-20T11:06:11.340Z,1.40
2022-10-20T11:09:14.281Z,1.25
2022-10-20T11:12:23.279Z,1.40
2022-10-20T11:15:15.548Z,1.10
2022-10-20T11:18:05.685Z,1.30
2022-10-20T11:20:46.644Z,1.33
2022-10-20T11:24:08.645Z,1.30
2022-10-20T11:26:42.028Z,1.40
2022-10-20T11:29:19.773Z,1.30
2022-10-20T11:32:01.696Z,1.20
2022-10-20T11:34:40.749Z,0.95
2022-10-20T11:37:24.193Z,1.15
2022-10-20T11:40:08.761Z,1.27
2022-10-20T11:42:51.291Z,1.33
2022-10-20T11:45:46.889Z,1.40
2022-10-20T11:48:28.467Z,1.30
2022-10-20T11:51:42.798Z,1.20
2022-10-20T11:55:00.698Z,1.38
2022-10-20T11:57:59.050Z,1.00
2022-10-20T12:01:12.630Z,1.17
2022-10-20T12:04:26.691Z,1.17
2022-10-20T12:07:54.130Z,1.30
2022-10-20T12:10:42.140Z,1.10
2022-10-20T12:13:34.612Z,1.23
2022-10-20T12:16:05.486Z,1.30
2022-10-20T12:18:40.182Z,1.50
2022-10-20T12:21:13.090Z,1.00
2022-10-20T12:24:08.171Z,1.10
2022-10-20T12:27:12.185Z,1.15
2022-10-20T12:30:04.315Z,1.10
2022-10-20T12:33:11.250Z,1.27
2022-10-20T12:36:19.260Z,1.30
2022-10-20T12:38:53.546Z,1.38
2022-10-20T12:41:35.399Z,1.30
2022-10-20T12:44:09.779Z,1.20
2022-10-20T12:46:45.583Z,1.55
2022-10-20T12:49:30.958Z,1.48
2022-10-20T12:52:03.354Z,1.33
2022-10-20T12:54:41.865Z,1.30
2022-10-20T12:57:38.976Z,1.40
2022-10-20T13:00:33.514Z,1.20
2022-10-20T13:03:04.196Z,1.50
2022-10-20T13:06:02.938Z,1.40
2022-10-20T13:08:37.646Z,1.05
2022-10-20T13:11:44.916Z,1.30
2022-10-20T13:15:08.125Z,1.20
2022-10-20T13:17:56.750Z,1.20
2022-10-20T13:20:42.780Z,1.27
2022-10-20T13:23:16.197Z,1.30
2022-10-20T13:25:51.039Z,1.27
2022-10-20T13:28:26.899Z,1.58
2022-10-20T13:31:23.803Z,1.20
2022-10-20T13:34:06.613Z,1.33
2022-10-20T13:37:00.236Z,1.35
2022-10-20T13:39:48.591Z,1.10
2022-10-20T13:42:38.984Z,1.33
2022-10-20T13:45:27.419Z,1.40
2022-10-20T13:48:22.338Z,1.50
2022-10-20T13:50:58.735Z,1.27
2022-10-20T13:53:36.161Z,1.25
2022-10-20T13:56:11.202Z,1.40
2022-10-20T13:58:41.814Z,1.33
2022-10-20T14:01:24.746Z,1.40
2022-10-20T14:03:57.859Z,1.25
2022-10-20T14:06:37.734Z,1.30
2022-10-20T14:09:22.356Z,1.33
2022-10-20T14:11:56.885Z,1.50
2022-10-20T14:14:30.293Z,1.50
2022-10-20T14:17:04.674Z,1.17
2022-10-20T14:19:37.498Z,1.40
2022-10-20T14:22:23.593Z,1.23
2022-10-20T14:24:59.936Z,1.38
2022-10-20T14:27:34.037Z,1.55
2022-10-20T14:30:07.742Z,1.60
2022-10-20T14:32:42.805Z,1.35
2022-10-20T14:35:27.258Z,1.33
2022-10-20T14:38:04.353Z,1.50
2022-10-20T14:40:37.746Z,1.20
2022-10-20T14:43:16.679Z,1.33
2022-10-20T14:45:56.349Z,1.27
2022-10-20T14:48:31.200Z,1.20
2022-10-20T14:51:04.350Z,1.23
2022-10-20T14:53:36.465Z,1.40
2022-10-20T14:56:26.187Z,1.30
2022-10-20T14:59:05.128Z,1.33
2022-10-20T15:01:35.555Z,1.30
2022-10-20T15:04:25.642Z,1.50
2022-10-20T15:07:16.736Z,1.38
2022-10-20T15:09:50.989Z,1.08
2022-10-20T15:12:25.922Z,1.13
2022-10-20T15:15:10.857Z,1.45
2022-10-20T15:17:45.861Z,1.20
2022-10-20T15:20:39.282Z,1.20
2022-10-20T15:23:14.295Z,1.38
2022-10-20T15:25:51.532Z,1.40
2022-10-20T15:28:37.855Z,1.25
2022-10-20T15:31:23.090Z,1.27
2022-10-20T15:33:54.037Z,1.00
2022-10-20T15:36:29.295Z,1.10
2022-10-20T15:39:02.602Z,1.10
2022-10-20T15:41:35.758Z,1.00
2022-10-20T15:44:16.416Z,1.30
2022-10-20T15:46:47.633Z,1.15
2022-10-20T15:49:18.391Z,1.17
2022-10-20T15:51:50.933Z,1.20
2022-10-20T15:54:24.914Z,1.30
2022-10-20T15:56:54.866Z,1.17
2022-10-20T15:59:24.774Z,1.08
2022-10-20T16:01:55.122Z,1.00
2022-10-20T16:04:35.887Z,1.10
2022-10-20T16:07:06.347Z,1.40
2022-10-20T16:09:38.126Z,1.15
2022-10-20T16:12:08.820Z,1.40
2022-10-20T16:14:39.166Z,1.17
2022-10-20T16:17:09.285Z,1.00
2022-10-20T16:19:39.740Z,0.88
2022-10-20T16:22:09.628Z,1.05
2022-10-20T16:24:41.526Z,1.17
2022-10-20T16:27:12.276Z,0.98
2022-10-20T16:29:45.147Z,1.15
2022-10-20T16:32:17.512Z,1.20
2022-10-20T16:34:47.397Z,1.20
2022-10-20T16:37:17.413Z,1.02
2022-10-20T16:40:02.721Z,1.35
2022-10-20T16:42:33.626Z,1.23
2022-10-20T16:45:03.575Z,1.35
2022-10-20T16:47:34.473Z,1.33
2022-10-20T16:50:05.174Z,1.35
2022-10-20T16:52:35.612Z,1.33
2022-10-20T16:55:08.769Z,1.50
2022-10-20T16:57:40.501Z,1.10
2022-10-20T17:00:12.820Z,1.27
2022-10-20T17:02:45.259Z,1.40
2022-10-20T17:05:15.700Z,1.10
2022-10-20T17:07:45.287Z,1.45
2022-10-20T17:10:18.732Z,1.67
2022-10-20T17:15:21.139Z,1.52
2022-10-20T17:17:51.017Z,1.70
2022-10-20T17:20:21.422Z,1.75
2022-10-20T17:22:51.467Z,1.70
2022-10-20T17:25:22.586Z,1.40
2022-10-20T17:27:53.093Z,1.45
2022-10-20T17:30:23.467Z,1.67
2022-10-20T17:32:53.917Z,1.50
2022-10-20T17:35:24.471Z,1.40
2022-10-20T17:37:54.792Z,1.38
2022-10-20T17:40:26.721Z,1.40
2022-10-20T17:42:57.138Z,1.35
2022-10-20T17:45:27.669Z,1.33
2022-10-20T17:47:59.003Z,1.60
2022-10-20T17:50:29.569Z,1.50
2022-10-20T17:53:02.799Z,1.50
2022-10-20T17:55:36.625Z,1.60
2022-10-20T17:58:06.667Z,1.50
2022-10-20T18:00:55.395Z,1.70
2022-10-20T18:03:27.184Z,1.60
2022-10-20T18:05:57.084Z,1.58
2022-10-20T18:08:36.578Z,1.50
2022-10-20T18:11:11.313Z,1.55
2022-10-20T18:13:41.637Z,1.55
2022-10-20T18:16:14.353Z,1.38
2022-10-20T18:18:45.257Z,1.65
2022-10-20T18:21:17.508Z,1.67
2022-10-20T18:23:48.909Z,1.42
2022-10-20T18:26:22.681Z,1.80
2022-10-20T18:28:54.799Z,1.50
2022-10-20T18:31:27.730Z,1.50
2022-10-20T18:34:04.188Z,1.42
2022-10-20T18:36:41.867Z,1.80
2022-10-20T18:39:15.702Z,1.58
2022-10-20T18:41:47.731Z,1.55
2022-10-20T18:44:20.908Z,1.52
2022-10-20T18:46:51.790Z,1.50
2022-10-20T18:49:22.331Z,1.55
2022-10-20T18:51:52.483Z,1.60
2022-10-20T18:54:24.283Z,1.33
2022-10-20T18:56:56.629Z,1.55
2022-10-20T18:59:26.699Z,1.70
2022-10-20T19:01:57.039Z,1.70
2022-10-20T19:04:27.513Z,1.70
2022-10-20T19:06:57.846Z,1.60
2022-10-20T19:09:27.796Z,1.70
2022-10-20T19:12:01.555Z,1.60
2022-10-20T19:14:32.746Z,1.48
2022-10-20T19:17:03.334Z,1.50
2022-10-20T19:19:35.032Z,1.48
2022-10-20T19:22:06.064Z,1.50
2022-10-20T19:24:40.146Z,1.55
2022-10-20T19:27:26.104Z,1.70
2022-10-20T19:29:57.837Z,1.58
2022-10-20T19:32:27.950Z,1.58
2022-10-20T19:34:58.487Z,1.70
2022-10-20T19:37:29.039Z,1.50
2022-10-20T19:39:58.963Z,1.60
2022-10-20T19:42:30.980Z,1.60
2022-10-20T19:45:00.853Z,1.50
2022-10-20T19:47:31.157Z,1.40
2022-10-20T19:50:00.971Z,1.52
2022-10-20T19:52:31.624Z,1.33
2022-10-20T19:55:01.822Z,1.75
2022-10-20T19:57:33.570Z,1.75
2022-10-20T20:00:03.997Z,1.70
2022-10-20T20:02:35.593Z,1.52
2022-10-20T20:05:06.607Z,1.50
2022-10-20T20:07:37.304Z,1.85
2022-10-20T20:10:10.554Z,1.65
2022-10-20T20:12:42.693Z,1.88
2022-10-20T20:15:12.943Z,1.52
2022-10-20T20:17:44.340Z,2.03
2022-10-20T20:20:14.992Z,1.88
2022-10-20T20:22:45.039Z,1.77
2022-10-20T20:25:15.687Z,1.75
2022-10-20T20:27:47.883Z,1.85
2022-10-20T20:30:18.564Z,1.70
2022-10-20T20:32:52.115Z,1.73
2022-10-20T20:35:24.506Z,1.58
2022-10-20T20:37:55.152Z,1.77
2022-10-20T20:40:25.554Z,2.00
2022-10-20T20:42:57.985Z,1.70
2022-10-20T20:45:28.386Z,1.65
2022-10-20T20:47:58.320Z,1.70
2022-10-20T20:50:28.691Z,1.98
2022-10-20T20:52:58.586Z,1.73
2022-10-20T20:55:28.987Z,2.00
2022-10-20T20:58:01.504Z,1.90
2022-10-20T21:00:31.931Z,1.70
2022-10-20T21:03:02.278Z,1.85
2022-10-20T21:05:32.779Z,1.60
2022-10-20T21:08:03.018Z,1.80
2022-10-20T21:10:33.370Z,1.75
2022-10-20T21:13:06.036Z,1.98
2022-10-20T21:15:36.505Z,1.80
2022-10-20T21:18:06.895Z,1.70
2022-10-20T21:20:37.267Z,1.90
2022-10-20T21:23:07.566Z,1.80
2022-10-20T21:25:37.448Z,1.80
2022-10-20T21:28:09.951Z,1.77
2022-10-20T21:30:43.441Z,1.90
2022-10-20T21:33:13.808Z,1.60
2022-10-20T21:35:43.721Z,1.60
2022-10-20T21:38:13.474Z,1.48
2022-10-20T21:40:43.689Z,1.92
2022-10-20T21:43:16.013Z,1.85
2022-10-20T21:45:46.375Z,2.00
2022-10-20T21:48:16.757Z,1.90
2022-10-20T21:50:46.763Z,1.75
2022-10-20T21:53:16.854Z,1.65
2022-10-20T21:55:47.136Z,1.83
2022-10-20T21:58:21.414Z,1.83
2022-10-20T22:00:54.228Z,1.77
2022-10-20T22:03:24.754Z,1.73
2022-10-20T22:05:55.113Z,2.00
2022-10-20T22:08:25.551Z,1.60
2022-10-20T22:10:55.855Z,1.77
2022-10-20T22:13:28.072Z,1.50
2022-10-20T22:15:57.850Z,1.70
2022-10-20T22:18:28.382Z,1.83
2022-10-20T22:20:58.878Z,2.13
2022-10-20T22:23:28.808Z,1.90
2022-10-20T22:25:59.351Z,2.10
2022-10-20T22:28:31.769Z,2.05
2022-10-20T22:33:32.560Z,1.90
2022-10-20T22:36:02.958Z,1.80
2022-10-20T22:38:33.481Z,1.60
2022-10-20T22:41:04.537Z,1.85
2022-10-20T22:43:36.402Z,1.90
2022-10-20T22:46:07.939Z,1.88
2022-10-20T22:48:39.094Z,1.90
2022-10-20T22:51:11.282Z,1.80
2022-10-20T22:53:42.061Z,1.77
2022-10-20T22:56:15.202Z,1.77
2022-10-20T22:58:48.674Z,1.58
2022-10-20T23:01:22.032Z,1.55
2022-10-20T23:03:52.508Z,1.85
2022-10-20T23:06:26.346Z,1.50
2022-10-20T23:08:58.204Z,1.70
2022-10-20T23:11:28.846Z,1.60
2022-10-20T23:14:01.610Z,1.77
2022-10-20T23:16:31.620Z,1.85
2022-10-20T23:19:02.074Z,1.70
2022-10-20T23:21:32.640Z,1.80
2022-10-20T23:24:03.099Z,1.70
2022-10-20T23:26:33.553Z,1.60
2022-10-20T23:29:05.917Z,1.70
2022-10-20T23:31:36.320Z,1.88
2022-10-20T23:34:06.093Z,1.85
2022-10-20T23:36:39.014Z,1.98
2022-10-20T23:39:09.535Z,1.70
2022-10-20T23:41:39.863Z,2.00
2022-10-20T23:44:12.463Z,1.88
2022-10-20T23:46:42.222Z,2.00
2022-10-20T23:49:12.786Z,1.85
2022-10-20T23:51:42.563Z,2.00
2022-10-20T23:54:13.055Z,1.83
2022-10-20T23:56:43.401Z,1.90
2022-10-20T23:59:16.176Z,1.83
